Time;durP1;ratioP1;P1;durP2;ratioP2;P2;SDS_P1;SDS_P2;PMS_P1;PMS_P2;Temp;Humidity;BMP_temperature;BMP_pressure;BME280_temperature;BME280_humidity;BME280_pressure;Samples;Min_cycle;Max_cycle;Signal;HPM_P1;HPM_P2
2022/11/21 00:01:13;;;;;;;25.50;16.20;;;2.30;99.90;;;;;;5105811;28;20496;-75
2022/11/21 00:03:38;;;;;;;26.48;16.77;;;2.30;99.90;;;;;;5111330;28;20087;-75
2022/11/21 00:06:04;;;;;;;28.70;18.08;;;2.30;99.90;;;;;;5096704;28;20071;-75
2022/11/21 00:08:29;;;;;;;26.67;15.60;;;2.30;99.90;;;;;;5080804;28;20118;-75
2022/11/21 00:10:58;;;;;;;28.98;16.90;;;2.30;99.90;;;;;;5105805;28;20047;-75
2022/11/21 00:13:23;;;;;;;29.25;17.02;;;2.30;99.90;;;;;;5090950;28;20036;-75
2022/11/21 00:15:49;;;;;;;27.90;16.77;;;2.40;99.90;;;;;;5090799;28;20158;-75
2022/11/21 00:18:15;;;;;;;22.77;15.75;;;2.30;99.90;;;;;;5090883;28;20048;-75
2022/11/21 00:20:41;;;;;;;27.42;16.95;;;2.30;99.90;;;;;;5091098;28;20520;-75
2022/11/21 00:23:07;;;;;;;27.25;16.92;;;2.30;99.90;;;;;;5103139;28;20505;-75
2022/11/21 00:25:33;;;;;;;26.23;16.27;;;2.30;99.90;;;;;;5110914;28;20697;-75
2022/11/21 00:27:59;;;;;;;26.92;15.18;;;2.20;99.90;;;;;;5097431;28;20067;-75
2022/11/21 00:30:25;;;;;;;26.98;15.82;;;2.30;99.90;;;;;;5094316;28;20066;-75
2022/11/21 00:32:50;;;;;;;28.00;17.45;;;2.20;99.90;;;;;;5094659;28;20058;-75
2022/11/21 00:35:16;;;;;;;27.83;16.00;;;2.20;99.90;;;;;;5093451;28;20508;-75
2022/11/21 00:37:41;;;;;;;27.58;16.67;;;2.20;99.90;;;;;;5090766;28;20043;-75
2022/11/21 00:40:08;;;;;;;24.85;16.67;;;2.30;99.90;;;;;;5090791;28;20040;-75
2022/11/21 00:42:33;;;;;;;24.38;16.08;;;2.30;99.90;;;;;;5090392;28;20397;-75
2022/11/21 00:44:59;;;;;;;24.67;15.73;;;2.10;99.90;;;;;;5090422;28;20036;-75
2022/11/21 00:47:24;;;;;;;27.23;15.88;;;2.30;99.90;;;;;;5090128;28;20043;-75
2022/11/21 00:49:50;;;;;;;26.48;16.40;;;2.30;99.90;;;;;;5090342;28;20119;-75
2022/11/21 00:52:16;;;;;;;28.67;16.48;;;2.10;99.90;;;;;;5090634;28;20393;-75
2022/11/21 00:54:41;;;;;;;23.88;16.73;;;2.20;99.90;;;;;;5099086;28;20115;-75
2022/11/21 00:57:07;;;;;;;24.73;17.42;;;2.20;99.90;;;;;;5110455;28;20126;-75
2022/11/21 00:59:33;;;;;;;30.33;15.82;;;2.20;99.90;;;;;;5091935;28;20047;-75
2022/11/21 01:01:58;;;;;;;26.90;15.63;;;2.10;99.90;;;;;;5091652;28;20081;-75
2022/11/21 01:04:24;;;;;;;25.55;17.15;;;2.10;99.90;;;;;;5091305;28;20083;-75
2022/11/21 01:06:49;;;;;;;26.45;16.55;;;2.10;99.90;;;;;;5090077;28;20117;-75
2022/11/21 01:09:15;;;;;;;25.77;16.33;;;2.00;99.90;;;;;;5090342;28;20042;-76
2022/11/21 01:11:40;;;;;;;25.98;16.25;;;2.00;99.90;;;;;;5090327;28;21160;-75
2022/11/21 01:14:06;;;;;;;25.80;16.38;;;2.00;99.90;;;;;;5090014;28;20043;-75
2022/11/21 01:16:31;;;;;;;26.42;15.90;;;2.10;99.90;;;;;;5109595;28;20487;-75
2022/11/21 01:18:57;;;;;;;28.77;16.55;;;2.00;99.90;;;;;;5092519;28;20492;-75
2022/11/21 01:21:25;;;;;;;27.05;16.02;;;1.90;99.90;;;;;;5110600;28;20039;-75
2022/11/21 01:23:51;;;;;;;25.40;15.73;;;1.90;99.90;;;;;;5096733;28;20047;-75
2022/11/21 01:26:22;;;;;;;20.85;14.18;;;1.80;99.90;;;;;;5093904;28;20043;-76
2022/11/21 01:28:48;;;;;;;23.88;15.50;;;1.80;99.90;;;;;;5094321;28;20044;-76
2022/11/21 01:31:19;;;;;;;24.60;16.13;;;1.80;99.90;;;;;;5097787;28;20050;-76
2022/11/21 01:33:45;;;;;;;22.90;15.10;;;1.80;99.90;;;;;;5114090;28;20588;-76
2022/11/21 01:36:18;;;;;;;29.17;16.13;;;1.70;99.90;;;;;;5110916;28;20126;-76
2022/11/21 01:38:46;;;;;;;25.10;15.57;;;1.50;99.90;;;;;;5094213;28;20469;-75
2022/11/21 01:41:14;;;;;;;24.65;15.13;;;1.50;99.90;;;;;;5077008;28;20039;-75
2022/11/21 01:43:40;;;;;;;22.55;14.88;;;1.60;99.90;;;;;;5099094;28;20069;-75
2022/11/21 01:46:08;;;;;;;23.75;15.40;;;1.40;99.90;;;;;;5114057;28;20457;-75
2022/11/21 01:49:02;;;;;;;25.45;15.43;;;1.50;99.90;;;;;;5102889;28;20035;-75
2022/11/21 01:51:46;;;;;;;;;;;1.30;99.90;;;;;;5114278;28;20043;-76
2022/11/21 01:54:23;;;;;;;24.42;14.65;;;1.40;99.90;;;;;;5110024;28;19915;-75
2022/11/21 01:57:02;;;;;;;25.40;14.30;;;1.30;99.90;;;;;;5114383;28;20055;-75
2022/11/21 01:59:45;;;;;;;21.88;14.52;;;1.20;99.90;;;;;;5097962;28;20047;-75
2022/11/21 02:02:13;;;;;;;23.17;14.55;;;1.40;99.90;;;;;;5089645;28;20126;-75
2022/11/21 02:04:40;;;;;;;25.77;14.90;;;1.20;99.90;;;;;;5107909;28;20082;-75
2022/11/21 02:07:07;;;;;;;27.35;15.35;;;1.20;99.90;;;;;;5113596;28;20477;-76
2022/11/21 02:09:36;;;;;;;26.23;16.33;;;1.30;99.90;;;;;;5107218;28;20044;-75
2022/11/21 02:12:07;;;;;;;21.45;13.52;;;1.10;99.90;;;;;;5107160;28;20435;-75
2022/11/21 02:14:33;;;;;;;25.55;15.68;;;1.30;99.90;;;;;;5106570;28;20511;-75
2022/11/21 02:17:02;;;;;;;25.00;15.35;;;1.10;99.90;;;;;;5113237;28;20040;-76
2022/11/21 02:19:43;;;;;;;22.02;15.20;;;1.20;99.90;;;;;;5100586;28;20044;-75
2022/11/21 02:22:31;;;;;;;26.67;15.75;;;1.20;99.90;;;;;;5104289;28;20047;-76
2022/11/21 02:25:03;;;;;;;22.42;15.23;;;1.10;99.90;;;;;;5112004;28;20092;-76
2022/11/21 02:27:30;;;;;;;29.45;17.55;;;1.20;99.90;;;;;;5096760;28;20047;-76
2022/11/21 02:29:55;;;;;;;24.60;14.75;;;1.10;99.90;;;;;;5106198;28;20038;-76
2022/11/21 02:32:23;;;;;;;26.58;15.85;;;1.00;99.90;;;;;;5112001;28;20118;-76
2022/11/21 02:34:49;;;;;;;22.15;15.02;;;1.00;99.90;;;;;;5113506;28;20036;-75
2022/11/21 02:37:16;;;;;;;25.75;14.95;;;1.00;99.90;;;;;;5106548;28;20417;-76
2022/11/21 02:39:44;;;;;;;27.77;15.60;;;0.90;99.90;;;;;;5113420;28;20417;-76
2022/11/21 02:42:25;;;;;;;25.23;15.55;;;1.10;99.90;;;;;;5094720;28;20043;-76
2022/11/21 02:45:15;;;;;;;25.45;15.50;;;0.90;99.90;;;;;;5099271;28;20062;-76
2022/11/21 02:47:42;;;;;;;25.58;15.25;;;1.10;99.90;;;;;;5091635;28;20052;-76
2022/11/21 02:50:31;;;;;;;25.95;15.50;;;0.90;99.90;;;;;;5092713;28;20063;-76
2022/11/21 02:52:57;;;;;;;25.95;16.38;;;0.90;99.90;;;;;;5111294;28;20048;-76
2022/11/21 02:55:26;;;;;;;24.75;15.55;;;1.00;99.90;;;;;;5112806;28;20046;-76
2022/11/21 02:57:52;;;;;;;24.38;15.82;;;0.90;99.90;;;;;;5112951;28;20055;-75
2022/11/21 03:00:19;;;;;;;23.42;16.95;;;1.20;99.90;;;;;;5106159;28;20040;-76
2022/11/21 03:02:44;;;;;;;24.77;15.73;;;1.00;99.90;;;;;;5112361;28;20122;-75
2022/11/21 03:05:16;;;;;;;29.02;17.95;;;1.10;99.90;;;;;;5098520;28;20146;-76
2022/11/21 03:07:42;;;;;;;30.55;16.35;;;1.00;99.90;;;;;;5112887;28;20120;-76
2022/11/21 03:10:08;;;;;;;27.25;15.68;;;1.10;99.90;;;;;;5113818;28;20077;-76
2022/11/21 03:12:38;;;;;;;24.50;15.80;;;1.00;99.90;;;;;;5108447;28;20511;-76
2022/11/21 03:15:04;;;;;;;28.48;16.83;;;1.00;99.90;;;;;;5092252;28;20051;-75
2022/11/21 03:17:30;;;;;;;27.00;16.02;;;1.10;99.90;;;;;;5093353;28;20047;-75
2022/11/21 03:19:55;;;;;;;26.65;17.38;;;1.20;99.90;;;;;;5091940;28;20051;-76
2022/11/21 03:22:21;;;;;;;26.63;15.95;;;0.90;99.90;;;;;;5091654;28;20044;-76
2022/11/21 03:24:46;;;;;;;28.75;17.48;;;1.00;99.90;;;;;;5091821;28;20138;-76
2022/11/21 03:27:12;;;;;;;31.73;17.92;;;1.00;99.90;;;;;;5091711;28;20044;-76
2022/11/21 03:29:37;;;;;;;27.27;17.50;;;1.10;99.90;;;;;;5091692;28;20493;-76
2022/11/21 03:32:03;;;;;;;26.15;17.85;;;0.90;99.90;;;;;;5076238;28;20039;-76
2022/11/21 03:34:29;;;;;;;28.52;16.83;;;0.90;99.90;;;;;;5096714;28;20468;-76
2022/11/21 03:36:54;;;;;;;29.63;17.80;;;1.00;99.90;;;;;;5092256;28;20698;-76
2022/11/21 03:39:20;;;;;;;30.05;18.15;;;1.00;99.90;;;;;;5087897;28;20051;-76
2022/11/21 03:41:46;;;;;;;29.40;17.92;;;0.80;99.90;;;;;;5098609;28;20516;-76
2022/11/21 03:44:12;;;;;;;29.50;17.70;;;0.80;99.90;;;;;;5094532;28;20051;-76
2022/11/21 03:46:45;;;;;;;29.48;17.83;;;0.80;99.90;;;;;;5098182;28;20102;-76
2022/11/21 03:49:12;;;;;;;26.10;17.63;;;0.80;99.90;;;;;;5105716;28;20096;-76
2022/11/21 03:51:39;;;;;;;32.22;19.20;;;1.00;99.90;;;;;;5111774;28;20044;-76
2022/11/21 03:54:05;;;;;;;31.35;19.67;;;0.80;99.90;;;;;;5112575;28;20051;-76
2022/11/21 03:56:31;;;;;;;32.50;20.27;;;0.80;99.90;;;;;;5111966;28;20043;-76
2022/11/21 03:58:57;;;;;;;31.98;19.92;;;0.90;99.90;;;;;;5105992;28;20055;-76
2022/11/21 04:01:23;;;;;;;36.90;20.67;;;1.00;99.90;;;;;;5091068;28;20070;-76
2022/11/21 04:03:50;;;;;;;29.15;18.27;;;0.80;99.90;;;;;;5090863;28;20044;-76
2022/11/21 04:06:18;;;;;;;32.13;20.10;;;0.90;99.90;;;;;;5109950;28;20047;-76
2022/11/21 04:08:43;;;;;;;28.23;17.85;;;0.90;99.90;;;;;;5111250;28;20035;-76
2022/11/21 04:11:09;;;;;;;31.15;20.23;;;0.90;99.90;;;;;;5112539;28;20088;-76
2022/11/21 04:13:35;;;;;;;33.13;19.80;;;0.90;99.90;;;;;;5106488;28;20036;-76
2022/11/21 04:16:01;;;;;;;32.10;19.48;;;0.80;99.90;;;;;;5090938;28;20462;-76
2022/11/21 04:18:29;;;;;;;31.60;18.92;;;0.90;99.90;;;;;;5108559;28;20046;-76
2022/11/21 04:20:58;;;;;;;34.97;20.40;;;0.70;99.90;;;;;;5093314;28;20382;-76
2022/11/21 04:23:25;;;;;;;31.70;19.42;;;0.70;99.90;;;;;;5097561;28;20048;-76
2022/11/21 04:25:51;;;;;;;35.10;21.20;;;0.90;99.90;;;;;;5107926;28;20071;-76
2022/11/21 04:28:17;;;;;;;34.35;20.58;;;0.80;99.90;;;;;;5104339;28;20063;-76
2022/11/21 04:30:42;;;;;;;34.17;21.02;;;0.90;99.90;;;;;;5094420;28;20522;-76
2022/11/21 04:33:08;;;;;;;34.03;21.30;;;0.90;99.90;;;;;;5091000;28;20046;-76
2022/11/21 04:35:34;;;;;;;37.05;21.45;;;1.00;99.90;;;;;;5097626;28;20042;-76
2022/11/21 04:37:59;;;;;;;31.27;20.98;;;0.80;99.90;;;;;;5090845;28;20052;-76
2022/11/21 04:40:25;;;;;;;38.00;22.10;;;0.90;99.90;;;;;;5091958;28;20044;-76
2022/11/21 04:42:50;;;;;;;37.42;21.77;;;1.00;99.90;;;;;;5090335;28;20035;-76
2022/11/21 04:45:16;;;;;;;35.72;22.45;;;1.00;99.90;;;;;;5074013;28;20044;-76
2022/11/21 04:47:44;;;;;;;39.58;22.50;;;1.00;99.90;;;;;;5090284;28;20082;-76
2022/11/21 04:50:12;;;;;;;36.63;22.95;;;1.00;99.90;;;;;;5090919;28;20042;-76
2022/11/21 04:52:38;;;;;;;35.83;22.48;;;0.90;99.90;;;;;;5103158;28;20066;-76
2022/11/21 04:55:04;;;;;;;37.88;21.60;;;1.10;99.90;;;;;;5090161;28;20036;-76
2022/11/21 04:57:30;;;;;;;34.60;21.50;;;1.10;99.90;;;;;;5097686;28;20080;-76
2022/11/21 04:59:56;;;;;;;37.58;22.67;;;1.20;99.90;;;;;;5105720;28;20042;-76
2022/11/21 05:02:22;;;;;;;35.20;21.88;;;1.10;99.90;;;;;;5110785;28;20091;-76
2022/11/21 05:04:48;;;;;;;34.42;21.40;;;1.30;99.90;;;;;;5093902;28;20040;-76
2022/11/21 05:07:14;;;;;;;31.98;19.58;;;1.20;99.90;;;;;;5110681;28;20119;-76
2022/11/21 05:09:39;;;;;;;33.35;20.52;;;1.10;99.90;;;;;;5111227;28;20071;-76
2022/11/21 05:14:49;;;;;;;36.50;21.30;;;1.20;99.90;;;;;;5111693;28;20504;-76
2022/11/21 05:17:15;;;;;;;35.80;20.60;;;1.40;99.90;;;;;;5111697;28;20047;-76
2022/11/21 05:19:41;;;;;;;32.97;20.10;;;1.30;99.90;;;;;;5112091;28;20042;-76
2022/11/21 05:22:06;;;;;;;35.00;20.58;;;1.30;99.90;;;;;;5110821;28;20054;-76
2022/11/21 05:24:32;;;;;;;34.47;19.50;;;1.30;99.90;;;;;;5110682;28;20119;-76
2022/11/21 05:26:57;;;;;;;29.52;18.25;;;1.00;99.90;;;;;;5110479;28;20123;-76
2022/11/21 05:29:23;;;;;;;31.10;19.60;;;1.00;99.90;;;;;;5106935;28;20032;-76
2022/11/21 05:31:49;;;;;;;30.40;18.23;;;0.90;99.90;;;;;;5089874;28;20074;-76
2022/11/21 05:34:14;;;;;;;35.30;20.00;;;0.90;99.90;;;;;;5103930;28;20036;-76
2022/11/21 05:36:40;;;;;;;30.42;18.67;;;0.90;99.90;;;;;;5096759;28;20058;-76
2022/11/21 05:39:05;;;;;;;35.42;20.83;;;0.90;99.90;;;;;;5093291;28;20516;-76
2022/11/21 05:41:31;;;;;;;35.35;19.98;;;1.00;99.90;;;;;;5107252;28;20113;-76
2022/11/21 05:43:56;;;;;;;34.13;21.02;;;0.70;99.90;;;;;;5089518;28;20040;-76
2022/11/21 05:46:24;;;;;;;33.45;20.25;;;0.80;99.90;;;;;;5089811;28;20036;-76
2022/11/21 05:48:51;;;;;;;36.58;21.00;;;0.50;99.90;;;;;;5089655;28;20036;-76
2022/11/21 05:51:17;;;;;;;35.70;20.65;;;0.50;99.90;;;;;;5072981;28;20111;-76
2022/11/21 05:53:43;;;;;;;34.55;20.55;;;0.60;99.90;;;;;;5089687;28;20036;-76
2022/11/21 05:56:11;;;;;;;37.65;21.15;;;0.80;99.90;;;;;;5103479;28;20039;-76
2022/11/21 05:58:37;;;;;;;38.83;20.17;;;0.70;99.90;;;;;;5090993;28;20040;-76
2022/11/21 06:01:04;;;;;;;36.40;21.13;;;0.60;99.90;;;;;;5093594;28;20058;-75
2022/11/21 06:03:33;;;;;;;37.33;20.08;;;0.60;99.90;;;;;;5110055;28;20048;-75
2022/11/21 06:06:04;;;;;;;30.33;18.65;;;0.60;99.90;;;;;;5110720;28;20043;-75
2022/11/21 06:08:35;;;;;;;34.42;21.02;;;0.50;99.90;;;;;;5114007;28;20122;-76
2022/11/21 06:11:02;;;;;;;40.20;22.10;;;0.70;99.90;;;;;;5114138;28;20047;-75
2022/11/21 06:13:28;;;;;;;34.17;19.80;;;0.40;99.90;;;;;;5113353;28;20042;-76
2022/11/21 06:16:01;;;;;;;31.02;19.58;;;0.50;99.90;;;;;;5113977;28;20040;-76
2022/11/21 06:18:29;;;;;;;32.25;19.40;;;0.60;99.90;;;;;;5110128;28;20039;-76
2022/11/21 06:21:00;;;;;;;35.67;21.60;;;0.50;99.90;;;;;;5113749;28;20057;-76
2022/11/21 06:23:26;;;;;;;39.42;21.15;;;0.50;99.90;;;;;;5113762;28;20105;-76
2022/11/21 06:25:59;;;;;;;35.78;20.25;;;0.20;99.90;;;;;;5113630;28;20513;-76
2022/11/21 06:28:36;;;;;;;35.65;22.30;;;0.40;99.90;;;;;;5096831;28;20441;-76
2022/11/21 06:31:09;;;;;;;37.47;20.15;;;0.30;99.90;;;;;;5114167;28;20047;-76
2022/11/21 06:33:36;;;;;;;36.53;21.58;;;0.50;99.90;;;;;;5113500;28;20031;-76
2022/11/21 06:36:13;;;;;;;36.25;20.45;;;0.50;99.90;;;;;;5113264;28;20090;-76
2022/11/21 06:38:39;;;;;;;40.92;21.58;;;0.50;99.90;;;;;;5113454;28;20039;-76
2022/11/21 06:41:21;;;;;;;43.13;21.20;;;0.50;99.90;;;;;;5113444;28;20109;-75
2022/11/21 06:43:47;;;;;;;35.42;19.05;;;0.20;99.90;;;;;;5113417;28;20682;-77
2022/11/21 06:46:14;;;;;;;43.90;21.80;;;0.30;99.90;;;;;;5092761;28;20105;-73
2022/11/21 06:48:40;;;;;;;40.40;22.63;;;0.50;99.90;;;;;;5112987;28;20638;-72
2022/11/21 06:51:18;;;;;;;42.67;21.85;;;0.50;99.90;;;;;;5113078;28;20449;-72
2022/11/21 06:53:44;;;;;;;36.25;21.70;;;0.60;99.90;;;;;;5113097;28;20036;-72
2022/11/21 06:56:09;;;;;;;38.03;21.65;;;0.60;99.90;;;;;;5113337;28;20036;-72
2022/11/21 06:58:35;;;;;;;36.08;22.17;;;0.30;99.90;;;;;;5113453;28;20036;-72
2022/11/21 07:01:08;;;;;;;32.75;21.17;;;0.20;99.90;;;;;;5114387;28;20050;-72
2022/11/21 07:03:34;;;;;;;36.88;20.27;;;0.50;99.90;;;;;;5112681;28;20039;-72
2022/11/21 07:06:00;;;;;;;39.00;21.67;;;0.50;99.90;;;;;;5112812;28;20044;-72
2022/11/21 07:08:27;;;;;;;37.13;20.45;;;0.20;99.90;;;;;;5096155;28;20408;-72
2022/11/21 07:10:53;;;;;;;35.00;20.00;;;0.20;99.90;;;;;;5112694;28;20036;-72
2022/11/21 07:13:21;;;;;;;35.83;21.25;;;0.20;99.90;;;;;;5112362;28;20050;-72
2022/11/21 07:15:52;;;;;;;34.95;21.15;;;0.20;99.90;;;;;;5112595;28;20050;-72
2022/11/21 07:18:19;;;;;;;36.35;21.42;;;0.30;99.90;;;;;;5112304;28;20055;-72
2022/11/21 07:20:45;;;;;;;35.88;20.33;;;0.40;99.90;;;;;;5112854;28;20459;-72
2022/11/21 07:23:10;;;;;;;37.97;21.88;;;0.30;99.90;;;;;;5112114;28;20127;-72
2022/11/21 07:25:38;;;;;;;42.97;25.83;;;0.30;99.90;;;;;;5113519;28;20038;-73
2022/11/21 07:28:04;;;;;;;41.55;27.80;;;0.40;99.90;;;;;;5113697;28;20067;-72
2022/11/21 07:30:30;;;;;;;39.17;24.55;;;0.10;99.90;;;;;;5113610;28;20032;-72
2022/11/21 07:33:01;;;;;;;42.92;22.95;;;0.10;99.90;;;;;;5111817;28;20046;-72
2022/11/21 07:35:28;;;;;;;37.80;22.88;;;0.10;99.90;;;;;;5112031;28;20047;-72
2022/11/21 07:37:53;;;;;;;34.88;21.35;;;0.30;99.90;;;;;;5113357;28;20431;-72
2022/11/21 07:40:19;;;;;;;42.22;24.85;;;0.50;99.90;;;;;;5112115;28;20036;-74
2022/11/21 07:42:45;;;;;;;42.58;23.85;;;0.40;99.90;;;;;;5112097;28;20071;-72
2022/11/21 07:45:12;;;;;;;44.20;24.75;;;0.30;99.90;;;;;;5112101;28;20074;-75
2022/11/21 07:47:38;;;;;;;42.50;24.10;;;0.30;99.90;;;;;;5111973;28;20075;-75
2022/11/21 07:50:05;;;;;;;41.40;24.15;;;0.40;99.90;;;;;;5112135;28;20059;-72
2022/11/21 07:52:30;;;;;;;46.65;25.77;;;0.60;99.90;;;;;;5111820;28;20401;-72
2022/11/21 07:54:56;;;;;;;42.25;24.02;;;0.70;99.90;;;;;;5111767;28;20039;-72
2022/11/21 07:57:22;;;;;;;45.38;24.35;;;0.70;99.90;;;;;;5111617;28;20035;-72
2022/11/21 07:59:48;;;;;;;44.58;24.75;;;0.90;99.90;;;;;;5111858;28;20064;-72
2022/11/21 08:02:18;;;;;;;47.58;26.10;;;1.00;99.90;;;;;;5112796;28;20035;-72
2022/11/21 08:04:44;;;;;;;39.00;23.17;;;1.00;99.90;;;;;;5111489;28;20481;-72
2022/11/21 08:07:09;;;;;;;41.30;24.38;;;1.10;99.90;;;;;;5112629;28;20035;-72
2022/11/21 08:09:35;;;;;;;40.40;22.45;;;1.00;99.90;;;;;;5111523;28;20048;-74
2022/11/21 08:12:00;;;;;;;37.95;22.70;;;1.10;99.90;;;;;;5111729;28;20389;-72
2022/11/21 08:14:26;;;;;;;39.13;22.35;;;1.10;99.90;;;;;;5111081;28;20039;-73
2022/11/21 08:16:52;;;;;;;39.47;22.17;;;1.00;99.90;;;;;;5111622;28;20081;-72
2022/11/21 08:19:17;;;;;;;36.45;22.23;;;1.00;99.90;;;;;;5111567;28;20071;-73
2022/11/21 08:21:43;;;;;;;37.35;22.30;;;0.90;99.90;;;;;;5111610;28;20071;-73
2022/11/21 08:24:13;;;;;;;39.42;22.65;;;1.20;99.90;;;;;;5111136;28;20089;-73
2022/11/21 08:26:39;;;;;;;36.67;23.05;;;1.10;99.90;;;;;;5111123;28;20047;-74
2022/11/21 08:29:05;;;;;;;39.50;21.85;;;1.20;99.90;;;;;;5112709;28;20127;-74
2022/11/21 08:31:30;;;;;;;34.35;22.23;;;1.30;99.90;;;;;;5110718;28;20066;-73
2022/11/21 08:33:56;;;;;;;37.38;21.90;;;1.10;99.90;;;;;;5110787;28;20057;-74
2022/11/21 08:36:22;;;;;;;38.75;23.50;;;1.00;99.90;;;;;;5110983;28;20036;-72
2022/11/21 08:38:47;;;;;;;43.22;24.48;;;1.00;99.90;;;;;;5111018;28;20122;-72
2022/11/21 08:43:57;;;;;;;38.65;21.65;;;1.30;99.90;;;;;;5110803;28;20577;-73
2022/11/21 08:46:26;;;;;;;41.22;22.92;;;1.30;99.90;;;;;;5112348;28;20134;-73
2022/11/21 08:48:55;;;;;;;43.72;23.10;;;1.10;99.90;;;;;;5110948;28;20050;-73
2022/11/21 08:51:21;;;;;;;39.17;23.48;;;1.40;99.90;;;;;;5112312;28;20464;-73
2022/11/21 08:53:47;;;;;;;35.65;22.02;;;1.40;99.90;;;;;;5110946;28;20024;-73
2022/11/21 08:56:12;;;;;;;39.83;24.10;;;1.50;99.90;;;;;;5111078;28;20043;-73
2022/11/21 08:58:39;;;;;;;45.67;24.85;;;1.40;99.90;;;;;;5112376;28;20047;-73
2022/11/21 09:01:04;;;;;;;40.88;24.63;;;1.50;99.90;;;;;;5112154;28;20046;-73
2022/11/21 09:03:31;;;;;;;40.15;22.20;;;1.60;99.90;;;;;;5106535;28;20032;-73
2022/11/21 09:05:56;;;;;;;40.60;24.83;;;1.30;99.90;;;;;;5107779;28;20092;-73
2022/11/21 09:08:22;;;;;;;44.78;26.05;;;1.50;99.90;;;;;;5111758;28;20508;-73
2022/11/21 09:10:48;;;;;;;45.17;26.48;;;1.50;99.90;;;;;;5093714;28;20511;-74
2022/11/21 09:13:13;;;;;;;42.90;25.23;;;1.30;99.90;;;;;;5110524;28;20075;-74
2022/11/21 09:18:26;;;;;;;45.22;24.55;;;1.40;99.90;;;;;;5110670;28;20443;-75
2022/11/21 09:20:52;;;;;;;45.65;26.10;;;1.40;99.90;;;;;;5110548;28;20039;-75
2022/11/21 09:23:17;;;;;;;42.17;25.30;;;1.70;99.90;;;;;;5110307;28;20097;-75
2022/11/21 09:25:44;;;;;;;40.70;23.73;;;1.70;99.90;;;;;;5111745;28;20096;-75
2022/11/21 09:28:12;;;;;;;42.47;24.58;;;1.70;99.90;;;;;;5093588;28;20036;-75
2022/11/21 09:30:37;;;;;;;41.45;23.55;;;1.70;99.90;;;;;;5111852;28;20044;-74
2022/11/21 09:33:15;;;;;;;40.65;23.83;;;1.50;99.90;;;;;;5110299;28;20046;-74
2022/11/21 09:35:41;;;;;;;40.25;24.15;;;1.70;99.90;;;;;;5093584;28;20040;-74
2022/11/21 09:38:07;;;;;;;42.75;23.25;;;1.70;99.90;;;;;;5111752;28;20378;-74
2022/11/21 09:40:34;;;;;;;43.50;25.00;;;1.90;99.90;;;;;;5110750;28;20047;-74
2022/11/21 09:43:14;;;;;;;40.00;24.73;;;1.70;99.90;;;;;;5114324;28;20123;-74
2022/11/21 09:45:48;;;;;;;40.33;23.73;;;2.00;99.90;;;;;;5114377;28;20040;-74
2022/11/21 09:48:54;;;;;;;42.92;25.98;;;1.90;99.90;;;;;;5114730;28;20066;-74
2022/11/21 09:51:26;;;;;;;38.83;23.08;;;1.80;99.90;;;;;;5098170;28;20431;-74
2022/11/21 09:54:06;;;;;;;38.97;23.70;;;1.90;99.90;;;;;;5113783;28;20086;-74
2022/11/21 09:56:36;;;;;;;43.55;24.02;;;2.00;99.90;;;;;;5115346;28;20043;-74
2022/11/21 09:59:20;;;;;;;40.67;23.33;;;2.20;99.90;;;;;;5114218;28;20043;-73
2022/11/21 10:01:46;;;;;;;37.70;23.75;;;2.20;99.90;;;;;;5114097;28;20049;-74
2022/11/21 10:04:12;;;;;;;36.58;22.42;;;2.10;99.90;;;;;;5113690;28;20454;-74
2022/11/21 10:06:58;;;;;;;39.85;24.35;;;2.00;99.90;;;;;;5113530;28;20079;-74
2022/11/21 10:10:07;;;;;;;36.83;22.23;;;2.00;99.90;;;;;;5115489;28;20050;-74
2022/11/21 10:13:08;;;;;;;39.80;21.50;;;2.00;99.90;;;;;;5113546;28;20075;-74
2022/11/21 10:16:07;;;;;;;37.03;21.73;;;2.20;99.90;;;;;;5115223;27;20035;-73
2022/11/21 10:18:57;;;;;;;39.13;23.20;;;2.20;99.90;;;;;;5096653;28;20038;-74
2022/11/21 10:21:47;;;;;;;42.53;21.33;;;2.20;99.90;;;;;;5113492;28;20043;-74
2022/11/21 10:24:39;;;;;;;44.33;23.83;;;2.20;99.90;;;;;;5113277;28;20089;-73
2022/11/21 10:27:21;;;;;;;44.45;22.85;;;2.20;99.90;;;;;;5113489;28;20036;-73
2022/11/21 10:30:04;;;;;;;34.90;21.10;;;2.10;99.90;;;;;;5114722;28;20036;-73
2022/11/21 10:32:40;;;;;;;38.38;21.45;;;2.30;99.90;;;;;;5113103;28;20065;-74
2022/11/21 10:35:34;;;;;;;36.85;22.08;;;2.40;99.90;;;;;;5113180;28;20544;-73
2022/11/21 10:38:04;;;;;;;38.75;23.33;;;2.30;99.90;;;;;;5099891;28;20055;-74
2022/11/21 10:40:43;;;;;;;44.22;22.13;;;2.30;99.90;;;;;;5113149;28;20039;-73
2022/11/21 10:46:21;;;;;;;36.42;22.95;;;2.40;99.90;;;;;;5114300;28;20096;-73
2022/11/21 10:49:01;;;;;;;37.60;20.95;;;2.60;99.90;;;;;;5112956;28;20035;-74
2022/11/21 10:51:55;;;;;;;33.95;21.23;;;2.70;99.90;;;;;;5114323;28;20114;-74
2022/11/21 10:54:34;;;;;;;35.35;20.83;;;2.70;99.90;;;;;;5113077;28;20039;-74
2022/11/21 10:56:59;;;;;;;33.33;20.85;;;2.70;99.90;;;;;;5114065;28;20742;-74
2022/11/21 10:59:27;;;;;;;40.65;22.98;;;2.50;99.90;;;;;;5114032;28;20036;-73
2022/11/21 11:01:58;;;;;;;37.00;21.83;;;2.60;99.90;;;;;;5112338;27;20038;-71
2022/11/21 11:04:26;;;;;;;41.22;22.20;;;2.60;99.90;;;;;;5112825;28;20067;-73
2022/11/21 11:06:52;;;;;;;33.10;21.50;;;2.80;99.90;;;;;;5112273;28;20051;-73
2022/11/21 11:09:29;;;;;;;33.42;20.92;;;3.10;99.90;;;;;;5112571;28;20040;-73
2022/11/21 11:12:22;;;;;;;34.58;19.83;;;3.10;99.90;;;;;;5114274;27;20397;-73
2022/11/21 11:14:54;;;;;;;34.72;20.05;;;2.90;99.90;;;;;;5112995;28;20553;-73
2022/11/21 11:17:32;;;;;;;29.85;19.58;;;3.10;99.90;;;;;;5112510;28;20123;-73
2022/11/21 11:20:04;;;;;;;31.17;19.00;;;3.10;99.90;;;;;;5112461;28;20039;-73
2022/11/21 11:22:30;;;;;;;32.22;20.88;;;3.20;99.90;;;;;;5112081;28;20043;-73
2022/11/21 11:24:56;;;;;;;32.60;19.35;;;3.00;99.90;;;;;;5112328;28;20043;-73
2022/11/21 11:27:28;;;;;;;32.78;19.85;;;3.00;99.90;;;;;;5112176;28;20552;-73
2022/11/21 11:29:54;;;;;;;33.30;19.75;;;3.20;99.90;;;;;;5112216;28;20554;-73
2022/11/21 11:32:21;;;;;;;28.45;18.83;;;3.40;99.90;;;;;;5111907;28;20035;-73
2022/11/21 11:34:49;;;;;;;29.35;19.42;;;3.40;99.90;;;;;;5112093;28;20123;-73
2022/11/21 11:37:28;;;;;;;27.00;17.08;;;3.50;99.90;;;;;;5111993;28;20044;-73
2022/11/21 11:40:17;;;;;;;29.52;19.02;;;3.30;99.90;;;;;;5113447;28;20070;-73
2022/11/21 11:49:04;;;;;;;30.65;17.92;;;3.50;99.90;;;;;;5111663;28;20073;-73
2022/11/21 11:51:37;;;;;;;29.58;18.40;;;3.40;99.90;;;;;;5113130;28;20070;-75
2022/11/21 11:54:12;;;;;;;27.58;16.73;;;3.30;99.90;;;;;;5110905;28;20569;-72
2022/11/21 11:56:38;;;;;;;31.85;17.50;;;3.50;99.90;;;;;;5110881;28;20039;-72
2022/11/21 11:59:35;;;;;;;31.13;17.48;;;3.60;99.90;;;;;;5111291;28;20412;-73
2022/11/21 12:02:22;;;;;;;35.28;18.58;;;3.70;99.90;;;;;;5112776;28;20517;-72
2022/11/21 12:05:01;;;;;;;28.83;16.92;;;3.80;99.90;;;;;;5111421;28;20047;-72
2022/11/21 12:07:39;;;;;;;28.30;18.08;;;3.80;99.90;;;;;;5110256;28;20408;-72
2022/11/21 12:10:15;;;;;;;32.85;19.42;;;3.90;99.90;;;;;;5112373;28;20036;-72
2022/11/21 12:12:54;;;;;;;33.17;17.75;;;4.00;99.90;;;;;;5110556;28;20035;-72
2022/11/21 12:15:47;;;;;;;34.25;18.60;;;4.00;99.90;;;;;;5111006;28;20043;-72
2022/11/21 12:18:19;;;;;;;31.25;17.75;;;4.00;99.90;;;;;;5111949;28;20035;-72
2022/11/21 12:20:50;;;;;;;35.90;18.20;;;4.00;99.90;;;;;;5110542;28;20092;-72
2022/11/21 12:23:17;;;;;;;28.15;16.90;;;3.90;99.90;;;;;;5110639;28;20050;-72
2022/11/21 12:26:11;;;;;;;31.38;18.25;;;4.00;99.90;;;;;;5110851;28;20493;-73
2022/11/21 12:29:19;;;;;;;29.83;18.08;;;4.10;99.90;;;;;;5110446;28;20050;-72
2022/11/21 12:32:06;;;;;;;28.90;16.65;;;4.10;99.90;;;;;;5111032;28;20050;-72
2022/11/21 12:34:53;;;;;;;28.40;16.33;;;4.10;99.90;;;;;;5107182;28;20031;-72
2022/11/21 12:37:33;;;;;;;35.47;17.95;;;4.10;99.90;;;;;;5101454;28;20035;-72
2022/11/21 12:40:08;;;;;;;25.38;16.17;;;4.20;99.90;;;;;;5112359;28;20131;-72
2022/11/21 12:42:48;;;;;;;29.08;17.80;;;4.10;99.90;;;;;;5112209;28;20039;-72
2022/11/21 12:45:28;;;;;;;29.65;17.00;;;4.20;99.90;;;;;;5110759;28;20043;-72
2022/11/21 12:57:03;;;;;;;28.25;15.80;;;4.00;99.90;;;;;;5112068;28;20048;-73
2022/11/21 13:00:07;;;;;;;21.00;13.80;;;4.10;99.90;;;;;;5112040;28;20075;-73
2022/11/21 13:02:42;;;;;;;23.75;14.30;;;4.20;99.90;;;;;;5110703;28;20520;-72
2022/11/21 13:05:14;;;;;;;23.52;13.52;;;4.20;99.90;;;;;;5093424;28;20054;-72
2022/11/21 13:07:40;;;;;;;21.63;13.18;;;4.20;99.90;;;;;;5111714;28;20047;-73
2022/11/21 13:10:13;;;;;;;20.35;13.02;;;4.20;99.90;;;;;;5110770;28;20296;-74
2022/11/21 13:12:52;;;;;;;18.02;12.95;;;4.30;99.90;;;;;;5110228;28;20114;-73
2022/11/21 13:15:28;;;;;;;18.38;11.95;;;4.30;99.90;;;;;;5110309;28;20042;-73
2022/11/21 13:18:32;;;;;;;17.95;11.70;;;4.30;99.90;;;;;;5114363;28;20096;-72
2022/11/21 13:20:57;;;;;;;18.48;12.55;;;4.40;99.90;;;;;;5116197;28;20098;-73